YZF weather

Yellowknife Airport
Yellowknife, Northwest Territories, Canada

Public forecast

Using degrees Celsius for public forecast. Weather courtesy of forecast.io.

Current aviation weather report (METAR) for Yellowknife Airport

Retrieved 2020/04/09 18:21 UTC (2 minutes ago):

CYZF 091821Z 08013G20KT 2SM -SN DRSN OVC024 M07/M09 A2978 RMK SC8 CIG RAG SLP105

Aviation forecast (TAF) for Yellowknife Airport

Retrieved 2020/04/09 18:39 UTC (0 seconds ago):

TAF CYZF 091738Z 0918/1018 09015KT 6SM -SN SCT012 OVC025 TEMPO 0918/1009 2SM -SN OVC006 BECMG 0923/1001 36010G20KT FM100900 34012G22KT P6SM OVC025 TEMPO 1009/1015 5SM -SN OVC020 FM101500 34012G22KT P6SM SCT025 BKN080 RMK NXT FCST BY 100000Z